sensor_id;sensor_type;location;lat;lon;timestamp;P1;durP1;ratioP1;P2;durP2;ratioP2
50559;SDS011;36510;52.610;13.468;2022-08-01T00:02:33;5.32;;;3.42;;
50559;SDS011;36510;52.610;13.468;2022-08-01T00:07:23;5.10;;;4.07;;
50559;SDS011;36510;52.610;13.468;2022-08-01T00:12:14;5.20;;;4.03;;
50559;SDS011;36510;52.610;13.468;2022-08-01T00:17:04;4.57;;;3.72;;
50559;SDS011;36510;52.610;13.468;2022-08-01T00:21:55;5.28;;;4.10;;
50559;SDS011;36510;52.610;13.468;2022-08-01T00:26:45;4.70;;;3.92;;
50559;SDS011;36510;52.610;13.468;2022-08-01T00:31:36;7.32;;;4.38;;
50559;SDS011;36510;52.610;13.468;2022-08-01T00:36:26;4.50;;;4.05;;
50559;SDS011;36510;52.610;13.468;2022-08-01T00:41:17;5.43;;;4.70;;
50559;SDS011;36510;52.610;13.468;2022-08-01T00:46:07;7.22;;;5.07;;
50559;SDS011;36510;52.610;13.468;2022-08-01T00:50:58;4.90;;;4.45;;
50559;SDS011;36510;52.610;13.468;2022-08-01T00:55:48;7.70;;;5.35;;
50559;SDS011;36510;52.610;13.468;2022-08-01T01:00:39;6.25;;;5.07;;
50559;SDS011;36510;52.610;13.468;2022-08-01T01:05:30;6.60;;;5.80;;
50559;SDS011;36510;52.610;13.468;2022-08-01T01:10:40;8.52;;;5.88;;
50559;SDS011;36510;52.610;13.468;2022-08-01T01:15:39;7.18;;;5.72;;
50559;SDS011;36510;52.610;13.468;2022-08-01T01:20:39;6.95;;;6.30;;
50559;SDS011;36510;52.610;13.468;2022-08-01T01:30:41;8.00;;;5.38;;
50559;SDS011;36510;52.610;13.468;2022-08-01T01:35:35;6.50;;;5.38;;
50559;SDS011;36510;52.610;13.468;2022-08-01T01:40:28;7.13;;;5.00;;
50559;SDS011;36510;52.610;13.468;2022-08-01T01:45:20;5.75;;;5.10;;
50559;SDS011;36510;52.610;13.468;2022-08-01T01:50:13;6.68;;;5.30;;
50559;SDS011;36510;52.610;13.468;2022-08-01T01:55:05;7.10;;;5.20;;
50559;SDS011;36510;52.610;13.468;2022-08-01T01:59:57;6.53;;;5.50;;
50559;SDS011;36510;52.610;13.468;2022-08-01T02:04:50;7.50;;;5.20;;
50559;SDS011;36510;52.610;13.468;2022-08-01T02:09:42;5.90;;;5.35;;
50559;SDS011;36510;52.610;13.468;2022-08-01T02:14:33;6.82;;;5.68;;
50559;SDS011;36510;52.610;13.468;2022-08-01T02:19:25;6.07;;;5.47;;
50559;SDS011;36510;52.610;13.468;2022-08-01T02:29:06;7.25;;;5.50;;
50559;SDS011;36510;52.610;13.468;2022-08-01T02:34:01;6.10;;;5.50;;
50559;SDS011;36510;52.610;13.468;2022-08-01T02:38:55;6.28;;;5.43;;
50559;SDS011;36510;52.610;13.468;2022-08-01T02:43:49;6.22;;;5.60;;
50559;SDS011;36510;52.610;13.468;2022-08-01T02:48:43;8.13;;;5.65;;
50559;SDS011;36510;52.610;13.468;2022-08-01T02:53:34;7.75;;;5.32;;
50559;SDS011;36510;52.610;13.468;2022-08-01T02:58:28;6.00;;;5.20;;
50559;SDS011;36510;52.610;13.468;2022-08-01T03:03:20;6.88;;;5.60;;
50559;SDS011;36510;52.610;13.468;2022-08-01T03:08:10;6.00;;;5.40;;
50559;SDS011;36510;52.610;13.468;2022-08-01T03:13:04;6.50;;;5.38;;
50559;SDS011;36510;52.610;13.468;2022-08-01T03:17:56;7.75;;;5.32;;
50559;SDS011;36510;52.610;13.468;2022-08-01T03:22:49;6.13;;;5.53;;
50559;SDS011;36510;52.610;13.468;2022-08-01T03:27:43;6.22;;;5.63;;
50559;SDS011;36510;52.610;13.468;2022-08-01T03:32:37;7.75;;;6.20;;
50559;SDS011;36510;52.610;13.468;2022-08-01T03:38:01;6.15;;;5.53;;
50559;SDS011;36510;52.610;13.468;2022-08-01T03:42:47;6.10;;;5.53;;
50559;SDS011;36510;52.610;13.468;2022-08-01T03:47:41;8.38;;;5.95;;
50559;SDS011;36510;52.610;13.468;2022-08-01T03:52:33;6.75;;;5.85;;
50559;SDS011;36510;52.610;13.468;2022-08-01T03:57:28;6.93;;;6.18;;
50559;SDS011;36510;52.610;13.468;2022-08-01T04:02:19;6.53;;;5.82;;
50559;SDS011;36510;52.610;13.468;2022-08-01T04:07:25;7.03;;;6.30;;
50559;SDS011;36510;52.610;13.468;2022-08-01T04:12:20;7.78;;;6.10;;
50559;SDS011;36510;52.610;13.468;2022-08-01T04:17:10;7.22;;;5.82;;
50559;SDS011;36510;52.610;13.468;2022-08-01T04:22:01;6.38;;;5.65;;
50559;SDS011;36510;52.610;13.468;2022-08-01T04:26:52;6.80;;;5.60;;
50559;SDS011;36510;52.610;13.468;2022-08-01T04:31:43;7.07;;;6.03;;
50559;SDS011;36510;52.610;13.468;2022-08-01T04:36:36;6.80;;;6.10;;
50559;SDS011;36510;52.610;13.468;2022-08-01T04:41:28;9.23;;;6.45;;
50559;SDS011;36510;52.610;13.468;2022-08-01T04:46:20;10.55;;;6.80;;
50559;SDS011;36510;52.610;13.468;2022-08-01T04:51:14;10.50;;;6.93;;
50559;SDS011;36510;52.610;13.468;2022-08-01T04:56:05;8.90;;;7.40;;
50559;SDS011;36510;52.610;13.468;2022-08-01T05:00:55;8.45;;;7.60;;
50559;SDS011;36510;52.610;13.468;2022-08-01T05:05:46;9.60;;;7.85;;
50559;SDS011;36510;52.610;13.468;2022-08-01T05:10:36;11.23;;;8.77;;
50559;SDS011;36510;52.610;13.468;2022-08-01T05:15:27;11.60;;;8.82;;
50559;SDS011;36510;52.610;13.468;2022-08-01T05:20:17;10.77;;;9.38;;
50559;SDS011;36510;52.610;13.468;2022-08-01T05:25:08;12.35;;;9.38;;
50559;SDS011;36510;52.610;13.468;2022-08-01T05:29:58;10.57;;;9.52;;
50559;SDS011;36510;52.610;13.468;2022-08-01T05:34:49;11.15;;;9.80;;
50559;SDS011;36510;52.610;13.468;2022-08-01T05:39:39;11.98;;;10.70;;
50559;SDS011;36510;52.610;13.468;2022-08-01T05:44:30;12.52;;;10.95;;
50559;SDS011;36510;52.610;13.468;2022-08-01T05:49:21;11.90;;;10.70;;
50559;SDS011;36510;52.610;13.468;2022-08-01T05:54:11;11.75;;;10.65;;
50559;SDS011;36510;52.610;13.468;2022-08-01T05:59:02;13.82;;;11.07;;
50559;SDS011;36510;52.610;13.468;2022-08-01T06:03:53;11.27;;;10.10;;
50559;SDS011;36510;52.610;13.468;2022-08-01T06:08:44;12.10;;;10.30;;
50559;SDS011;36510;52.610;13.468;2022-08-01T06:13:34;11.45;;;10.27;;
50559;SDS011;36510;52.610;13.468;2022-08-01T06:18:25;10.88;;;9.45;;
50559;SDS011;36510;52.610;13.468;2022-08-01T06:23:15;10.93;;;9.73;;
50559;SDS011;36510;52.610;13.468;2022-08-01T06:28:06;13.02;;;10.52;;
50559;SDS011;36510;52.610;13.468;2022-08-01T06:32:56;10.38;;;9.27;;
50559;SDS011;36510;52.610;13.468;2022-08-01T06:37:48;10.10;;;8.35;;
50559;SDS011;36510;52.610;13.468;2022-08-01T06:42:39;8.27;;;7.20;;
50559;SDS011;36510;52.610;13.468;2022-08-01T06:47:29;8.48;;;6.70;;
50559;SDS011;36510;52.610;13.468;2022-08-01T06:52:20;8.13;;;6.53;;
50559;SDS011;36510;52.610;13.468;2022-08-01T06:57:10;6.28;;;5.43;;
50559;SDS011;36510;52.610;13.468;2022-08-01T07:02:01;6.20;;;5.47;;
50559;SDS011;36510;52.610;13.468;2022-08-01T07:06:51;5.65;;;5.07;;
50559;SDS011;36510;52.610;13.468;2022-08-01T07:11:42;6.72;;;4.85;;
50559;SDS011;36510;52.610;13.468;2022-08-01T07:16:32;5.30;;;4.55;;
50559;SDS011;36510;52.610;13.468;2022-08-01T07:21:23;5.82;;;5.20;;
50559;SDS011;36510;52.610;13.468;2022-08-01T07:26:13;5.22;;;4.70;;
50559;SDS011;36510;52.610;13.468;2022-08-01T07:31:04;6.30;;;5.10;;
50559;SDS011;36510;52.610;13.468;2022-08-01T07:35:55;5.40;;;4.90;;
50559;SDS011;36510;52.610;13.468;2022-08-01T07:40:45;5.03;;;4.50;;
50559;SDS011;36510;52.610;13.468;2022-08-01T07:45:36;5.57;;;4.20;;
50559;SDS011;36510;52.610;13.468;2022-08-01T07:50:26;5.40;;;4.22;;
50559;SDS011;36510;52.610;13.468;2022-08-01T07:55:16;4.70;;;4.18;;
50559;SDS011;36510;52.610;13.468;2022-08-01T08:00:07;6.15;;;3.72;;
50559;SDS011;36510;52.610;13.468;2022-08-01T08:04:59;4.90;;;3.63;;
50559;SDS011;36510;52.610;13.468;2022-08-01T08:09:49;4.43;;;3.47;;
50559;SDS011;36510;52.610;13.468;2022-08-01T08:14:40;3.20;;;2.90;;
50559;SDS011;36510;52.610;13.468;2022-08-01T08:19:30;8.13;;;3.15;;
50559;SDS011;36510;52.610;13.468;2022-08-01T08:24:23;8.95;;;3.53;;
50559;SDS011;36510;52.610;13.468;2022-08-01T08:29:13;4.53;;;3.42;;
50559;SDS011;36510;52.610;13.468;2022-08-01T08:34:04;3.83;;;2.88;;
50559;SDS011;36510;52.610;13.468;2022-08-01T08:38:55;3.65;;;3.10;;
50559;SDS011;36510;52.610;13.468;2022-08-01T08:43:45;6.43;;;3.50;;
50559;SDS011;36510;52.610;13.468;2022-08-01T08:48:36;4.10;;;3.05;;
50559;SDS011;36510;52.610;13.468;2022-08-01T08:53:29;3.28;;;2.95;;
50559;SDS011;36510;52.610;13.468;2022-08-01T08:58:22;4.63;;;3.03;;
50559;SDS011;36510;52.610;13.468;2022-08-01T09:03:16;3.75;;;2.70;;
50559;SDS011;36510;52.610;13.468;2022-08-01T09:08:07;3.63;;;2.83;;
50559;SDS011;36510;52.610;13.468;2022-08-01T09:13:02;3.00;;;2.70;;
50559;SDS011;36510;52.610;13.468;2022-08-01T09:17:54;3.33;;;2.55;;
50559;SDS011;36510;52.610;13.468;2022-08-01T09:22:44;4.20;;;2.10;;
50559;SDS011;36510;52.610;13.468;2022-08-01T09:27:36;2.80;;;1.80;;
50559;SDS011;36510;52.610;13.468;2022-08-01T09:32:29;2.58;;;2.22;;
50559;SDS011;36510;52.610;13.468;2022-08-01T09:37:22;2.33;;;1.83;;
50559;SDS011;36510;52.610;13.468;2022-08-01T09:42:24;2.50;;;2.20;;
50559;SDS011;36510;52.610;13.468;2022-08-01T09:47:16;3.28;;;1.88;;
50559;SDS011;36510;52.610;13.468;2022-08-01T09:57:09;2.28;;;1.88;;
50559;SDS011;36510;52.610;13.468;2022-08-01T10:02:05;2.20;;;1.83;;
50559;SDS011;36510;52.610;13.468;2022-08-01T10:07:03;2.65;;;1.90;;
50559;SDS011;36510;52.610;13.468;2022-08-01T10:11:55;2.63;;;1.95;;
50559;SDS011;36510;52.610;13.468;2022-08-01T10:16:47;3.08;;;2.33;;
50559;SDS011;36510;52.610;13.468;2022-08-01T10:21:39;3.15;;;2.38;;
50559;SDS011;36510;52.610;13.468;2022-08-01T10:26:32;4.95;;;3.10;;
50559;SDS011;36510;52.610;13.468;2022-08-01T10:31:24;4.90;;;2.75;;
50559;SDS011;36510;52.610;13.468;2022-08-01T10:36:17;4.03;;;3.08;;
50559;SDS011;36510;52.610;13.468;2022-08-01T10:41:10;3.20;;;2.85;;
50559;SDS011;36510;52.610;13.468;2022-08-01T10:46:05;5.10;;;2.53;;
50559;SDS011;36510;52.610;13.468;2022-08-01T10:50:57;2.50;;;2.00;;
50559;SDS011;36510;52.610;13.468;2022-08-01T11:00:40;3.08;;;1.80;;
50559;SDS011;36510;52.610;13.468;2022-08-01T11:05:31;2.20;;;1.90;;
50559;SDS011;36510;52.610;13.468;2022-08-01T11:10:28;2.55;;;2.00;;
50559;SDS011;36510;52.610;13.468;2022-08-01T11:15:28;2.60;;;2.40;;
50559;SDS011;36510;52.610;13.468;2022-08-01T11:20:20;7.80;;;1.90;;
50559;SDS011;36510;52.610;13.468;2022-08-01T11:25:12;6.88;;;1.50;;
50559;SDS011;36510;52.610;13.468;2022-08-01T11:34:59;3.00;;;0.90;;
50559;SDS011;36510;52.610;13.468;2022-08-01T11:45:08;3.70;;;1.77;;
50559;SDS011;36510;52.610;13.468;2022-08-01T11:50:01;3.90;;;1.20;;
50559;SDS011;36510;52.610;13.468;2022-08-01T11:54:56;1.98;;;1.20;;
50559;SDS011;36510;52.610;13.468;2022-08-01T11:59:58;7.50;;;1.48;;
50559;SDS011;36510;52.610;13.468;2022-08-01T12:04:54;2.00;;;1.30;;
50559;SDS011;36510;52.610;13.468;2022-08-01T12:09:56;5.22;;;1.83;;
50559;SDS011;36510;52.610;13.468;2022-08-01T12:15:05;2.90;;;1.20;;
50559;SDS011;36510;52.610;13.468;2022-08-01T12:19:57;1.10;;;1.00;;
50559;SDS011;36510;52.610;13.468;2022-08-01T12:24:47;2.00;;;1.23;;
50559;SDS011;36510;52.610;13.468;2022-08-01T12:29:39;1.77;;;1.38;;
50559;SDS011;36510;52.610;13.468;2022-08-01T12:34:30;2.00;;;1.20;;
50559;SDS011;36510;52.610;13.468;2022-08-01T12:39:33;1.70;;;1.17;;
50559;SDS011;36510;52.610;13.468;2022-08-01T12:44:25;4.13;;;1.65;;
50559;SDS011;36510;52.610;13.468;2022-08-01T12:49:17;1.85;;;1.40;;
50559;SDS011;36510;52.610;13.468;2022-08-01T12:54:08;2.58;;;1.30;;
50559;SDS011;36510;52.610;13.468;2022-08-01T12:59:00;2.03;;;1.40;;
50559;SDS011;36510;52.610;13.468;2022-08-01T13:03:57;2.80;;;1.40;;
50559;SDS011;36510;52.610;13.468;2022-08-01T13:08:54;2.40;;;1.30;;
50559;SDS011;36510;52.610;13.468;2022-08-01T13:13:45;2.63;;;1.30;;
50559;SDS011;36510;52.610;13.468;2022-08-01T13:18:38;4.38;;;1.70;;
50559;SDS011;36510;52.610;13.468;2022-08-01T13:23:37;2.72;;;1.55;;
50559;SDS011;36510;52.610;13.468;2022-08-01T13:29:03;1.63;;;1.40;;
50559;SDS011;36510;52.610;13.468;2022-08-01T13:33:55;1.92;;;1.60;;
50559;SDS011;36510;52.610;13.468;2022-08-01T13:38:45;3.03;;;1.52;;
50559;SDS011;36510;52.610;13.468;2022-08-01T13:43:54;3.45;;;1.50;;
50559;SDS011;36510;52.610;13.468;2022-08-01T13:48:45;3.15;;;1.58;;
50559;SDS011;36510;52.610;13.468;2022-08-01T13:53:35;4.13;;;1.60;;
50559;SDS011;36510;52.610;13.468;2022-08-01T13:58:26;3.83;;;1.50;;
50559;SDS011;36510;52.610;13.468;2022-08-01T14:03:18;4.38;;;1.50;;
50559;SDS011;36510;52.610;13.468;2022-08-01T14:08:08;6.90;;;1.60;;
50559;SDS011;36510;52.610;13.468;2022-08-01T14:12:59;3.10;;;1.67;;
50559;SDS011;36510;52.610;13.468;2022-08-01T14:17:49;2.70;;;1.48;;
50559;SDS011;36510;52.610;13.468;2022-08-01T14:22:40;2.28;;;1.50;;
50559;SDS011;36510;52.610;13.468;2022-08-01T14:27:31;37.10;;;3.08;;
50559;SDS011;36510;52.610;13.468;2022-08-01T14:32:25;2.75;;;1.52;;
50559;SDS011;36510;52.610;13.468;2022-08-01T14:37:16;2.90;;;1.15;;
50559;SDS011;36510;52.610;13.468;2022-08-01T14:42:06;3.80;;;1.23;;
50559;SDS011;36510;52.610;13.468;2022-08-01T14:46:57;3.78;;;1.30;;
50559;SDS011;36510;52.610;13.468;2022-08-01T14:51:47;4.40;;;1.40;;
50559;SDS011;36510;52.610;13.468;2022-08-01T14:56:38;1.83;;;1.20;;
50559;SDS011;36510;52.610;13.468;2022-08-01T15:01:28;1.92;;;1.25;;
50559;SDS011;36510;52.610;13.468;2022-08-01T15:06:19;3.40;;;1.05;;
50559;SDS011;36510;52.610;13.468;2022-08-01T15:11:09;5.70;;;1.33;;
50559;SDS011;36510;52.610;13.468;2022-08-01T15:16:00;1.40;;;0.82;;
50559;SDS011;36510;52.610;13.468;2022-08-01T15:20:50;1.83;;;1.00;;
50559;SDS011;36510;52.610;13.468;2022-08-01T15:25:41;1.27;;;0.70;;
50559;SDS011;36510;52.610;13.468;2022-08-01T15:30:31;4.75;;;1.30;;
50559;SDS011;36510;52.610;13.468;2022-08-01T15:35:23;2.50;;;0.95;;
50559;SDS011;36510;52.610;13.468;2022-08-01T15:40:13;5.85;;;1.00;;
50559;SDS011;36510;52.610;13.468;2022-08-01T15:45:04;5.03;;;1.20;;
50559;SDS011;36510;52.610;13.468;2022-08-01T15:49:55;4.90;;;1.00;;
50559;SDS011;36510;52.610;13.468;2022-08-01T15:54:49;2.55;;;0.85;;
50559;SDS011;36510;52.610;13.468;2022-08-01T15:59:39;3.40;;;0.90;;
50559;SDS011;36510;52.610;13.468;2022-08-01T16:04:30;3.78;;;1.10;;
50559;SDS011;36510;52.610;13.468;2022-08-01T16:09:20;2.42;;;0.80;;
50559;SDS011;36510;52.610;13.468;2022-08-01T16:14:11;1.85;;;0.98;;
50559;SDS011;36510;52.610;13.468;2022-08-01T16:19:01;0.85;;;0.65;;
50559;SDS011;36510;52.610;13.468;2022-08-01T16:23:54;2.15;;;0.80;;
50559;SDS011;36510;52.610;13.468;2022-08-01T16:28:44;6.43;;;0.80;;
50559;SDS011;36510;52.610;13.468;2022-08-01T16:33:37;1.55;;;0.80;;
50559;SDS011;36510;52.610;13.468;2022-08-01T16:38:27;1.33;;;0.70;;
50559;SDS011;36510;52.610;13.468;2022-08-01T16:43:18;1.00;;;0.80;;
50559;SDS011;36510;52.610;13.468;2022-08-01T16:48:09;0.90;;;0.73;;
50559;SDS011;36510;52.610;13.468;2022-08-01T16:53:00;1.15;;;0.63;;
50559;SDS011;36510;52.610;13.468;2022-08-01T16:57:51;2.50;;;0.88;;
50559;SDS011;36510;52.610;13.468;2022-08-01T17:02:42;4.00;;;1.00;;
50559;SDS011;36510;52.610;13.468;2022-08-01T17:07:35;1.95;;;1.00;;
50559;SDS011;36510;52.610;13.468;2022-08-01T17:12:26;1.63;;;0.90;;
50559;SDS011;36510;52.610;13.468;2022-08-01T17:17:17;1.95;;;1.00;;
50559;SDS011;36510;52.610;13.468;2022-08-01T17:22:07;2.65;;;0.90;;
50559;SDS011;36510;52.610;13.468;2022-08-01T17:26:58;1.55;;;0.98;;
50559;SDS011;36510;52.610;13.468;2022-08-01T17:31:48;1.95;;;0.90;;
50559;SDS011;36510;52.610;13.468;2022-08-01T17:36:38;2.17;;;1.30;;
50559;SDS011;36510;52.610;13.468;2022-08-01T17:41:29;1.80;;;1.20;;
50559;SDS011;36510;52.610;13.468;2022-08-01T17:46:20;2.58;;;0.77;;
50559;SDS011;36510;52.610;13.468;2022-08-01T17:51:10;2.13;;;0.93;;
50559;SDS011;36510;52.610;13.468;2022-08-01T17:56:01;1.92;;;0.90;;
50559;SDS011;36510;52.610;13.468;2022-08-01T18:00:54;2.47;;;0.93;;
50559;SDS011;36510;52.610;13.468;2022-08-01T18:05:45;1.67;;;1.02;;
50559;SDS011;36510;52.610;13.468;2022-08-01T18:10:35;3.10;;;1.30;;
50559;SDS011;36510;52.610;13.468;2022-08-01T18:15:26;3.85;;;1.15;;
50559;SDS011;36510;52.610;13.468;2022-08-01T18:20:17;4.88;;;0.90;;
50559;SDS011;36510;52.610;13.468;2022-08-01T18:25:08;1.77;;;0.75;;
50559;SDS011;36510;52.610;13.468;2022-08-01T18:29:59;4.97;;;0.95;;
50559;SDS011;36510;52.610;13.468;2022-08-01T18:34:49;1.60;;;0.73;;
50559;SDS011;36510;52.610;13.468;2022-08-01T18:39:40;4.95;;;1.05;;
50559;SDS011;36510;52.610;13.468;2022-08-01T18:44:31;2.53;;;1.10;;
50559;SDS011;36510;52.610;13.468;2022-08-01T18:49:21;2.50;;;1.05;;
50559;SDS011;36510;52.610;13.468;2022-08-01T18:54:12;2.55;;;0.90;;
50559;SDS011;36510;52.610;13.468;2022-08-01T18:59:03;0.98;;;0.80;;
50559;SDS011;36510;52.610;13.468;2022-08-01T19:03:54;2.67;;;0.95;;
50559;SDS011;36510;52.610;13.468;2022-08-01T19:08:44;2.95;;;1.02;;
50559;SDS011;36510;52.610;13.468;2022-08-01T19:13:35;2.13;;;1.00;;
50559;SDS011;36510;52.610;13.468;2022-08-01T19:18:27;1.88;;;1.00;;
50559;SDS011;36510;52.610;13.468;2022-08-01T19:23:17;9.23;;;2.45;;
50559;SDS011;36510;52.610;13.468;2022-08-01T19:28:26;4.38;;;1.60;;
50559;SDS011;36510;52.610;13.468;2022-08-01T19:33:18;10.20;;;2.67;;
50559;SDS011;36510;52.610;13.468;2022-08-01T19:38:09;13.43;;;2.55;;
50559;SDS011;36510;52.610;13.468;2022-08-01T19:43:00;7.43;;;2.60;;
50559;SDS011;36510;52.610;13.468;2022-08-01T19:47:52;13.07;;;3.03;;
50559;SDS011;36510;52.610;13.468;2022-08-01T19:52:44;3.90;;;1.30;;
50559;SDS011;36510;52.610;13.468;2022-08-01T19:57:39;2.05;;;0.90;;
50559;SDS011;36510;52.610;13.468;2022-08-01T20:02:31;3.85;;;1.00;;
50559;SDS011;36510;52.610;13.468;2022-08-01T20:07:23;2.35;;;1.00;;
50559;SDS011;36510;52.610;13.468;2022-08-01T20:12:13;2.53;;;1.30;;
50559;SDS011;36510;52.610;13.468;2022-08-01T20:17:04;1.48;;;0.90;;
50559;SDS011;36510;52.610;13.468;2022-08-01T20:21:57;2.30;;;1.00;;
50559;SDS011;36510;52.610;13.468;2022-08-01T20:26:50;1.85;;;0.90;;
50559;SDS011;36510;52.610;13.468;2022-08-01T20:31:47;2.78;;;0.95;;
50559;SDS011;36510;52.610;13.468;2022-08-01T20:36:38;3.35;;;1.25;;
50559;SDS011;36510;52.610;13.468;2022-08-01T20:41:30;2.67;;;1.10;;
50559;SDS011;36510;52.610;13.468;2022-08-01T20:46:24;1.90;;;1.02;;
50559;SDS011;36510;52.610;13.468;2022-08-01T20:51:16;1.88;;;1.15;;
50559;SDS011;36510;52.610;13.468;2022-08-01T20:56:16;2.50;;;1.17;;
50559;SDS011;36510;52.610;13.468;2022-08-01T21:01:34;2.97;;;1.20;;
50559;SDS011;36510;52.610;13.468;2022-08-01T21:06:31;2.47;;;1.33;;
50559;SDS011;36510;52.610;13.468;2022-08-01T21:11:35;2.53;;;1.30;;
50559;SDS011;36510;52.610;13.468;2022-08-01T21:16:42;2.83;;;1.10;;
50559;SDS011;36510;52.610;13.468;2022-08-01T21:21:39;3.10;;;1.40;;
50559;SDS011;36510;52.610;13.468;2022-08-01T21:31:29;2.35;;;1.58;;
50559;SDS011;36510;52.610;13.468;2022-08-01T21:36:23;2.88;;;1.48;;
50559;SDS011;36510;52.610;13.468;2022-08-01T21:41:16;2.67;;;1.40;;
50559;SDS011;36510;52.610;13.468;2022-08-01T21:46:07;2.58;;;1.55;;
50559;SDS011;36510;52.610;13.468;2022-08-01T21:51:03;4.05;;;1.70;;
50559;SDS011;36510;52.610;13.468;2022-08-01T21:56:10;3.97;;;1.83;;
50559;SDS011;36510;52.610;13.468;2022-08-01T22:01:22;3.20;;;2.15;;
50559;SDS011;36510;52.610;13.468;2022-08-01T22:06:20;6.18;;;2.22;;
50559;SDS011;36510;52.610;13.468;2022-08-01T22:11:13;4.18;;;2.03;;
50559;SDS011;36510;52.610;13.468;2022-08-01T22:16:09;4.15;;;2.58;;
50559;SDS011;36510;52.610;13.468;2022-08-01T22:21:04;5.53;;;2.63;;
50559;SDS011;36510;52.610;13.468;2022-08-01T22:25:54;4.05;;;2.58;;
50559;SDS011;36510;52.610;13.468;2022-08-01T22:30:45;5.07;;;2.70;;
50559;SDS011;36510;52.610;13.468;2022-08-01T22:35:39;3.08;;;2.20;;
50559;SDS011;36510;52.610;13.468;2022-08-01T22:40:31;8.68;;;2.63;;
50559;SDS011;36510;52.610;13.468;2022-08-01T22:45:38;4.38;;;2.28;;
50559;SDS011;36510;52.610;13.468;2022-08-01T22:50:37;6.57;;;2.40;;
50559;SDS011;36510;52.610;13.468;2022-08-01T22:55:30;4.85;;;2.35;;
50559;SDS011;36510;52.610;13.468;2022-08-01T23:00:31;4.53;;;2.10;;
50559;SDS011;36510;52.610;13.468;2022-08-01T23:05:24;16.27;;;2.63;;
50559;SDS011;36510;52.610;13.468;2022-08-01T23:10:22;9.80;;;2.30;;
50559;SDS011;36510;52.610;13.468;2022-08-01T23:15:13;10.75;;;2.58;;
50559;SDS011;36510;52.610;13.468;2022-08-01T23:20:05;8.70;;;2.70;;
50559;SDS011;36510;52.610;13.468;2022-08-01T23:24:57;14.50;;;3.05;;
50559;SDS011;36510;52.610;13.468;2022-08-01T23:29:48;29.25;;;4.65;;
50559;SDS011;36510;52.610;13.468;2022-08-01T23:34:39;23.70;;;4.55;;
50559;SDS011;36510;52.610;13.468;2022-08-01T23:39:30;23.35;;;3.65;;
50559;SDS011;36510;52.610;13.468;2022-08-01T23:44:20;19.55;;;3.88;;
50559;SDS011;36510;52.610;13.468;2022-08-01T23:49:10;34.70;;;4.22;;
50559;SDS011;36510;52.610;13.468;2022-08-01T23:54:02;16.23;;;3.40;;
50559;SDS011;36510;52.610;13.468;2022-08-01T23:58:52;16.05;;;3.22;;
